createdAt,value
2017-09-19T00:00:48.790Z,2.40
2017-09-19T00:01:48.746Z,2.40
2017-09-19T00:02:48.821Z,2.40
2017-09-19T00:03:48.820Z,2.40
2017-09-19T00:04:48.784Z,2.40
2017-09-19T00:05:48.776Z,2.40
2017-09-19T00:06:48.772Z,2.40
2017-09-19T00:07:48.721Z,2.40
2017-09-19T00:08:48.748Z,2.40
2017-09-19T00:09:48.793Z,2.40
2017-09-19T00:10:48.750Z,2.20
2017-09-19T00:11:48.792Z,2.20
2017-09-19T00:12:48.738Z,2.20
2017-09-19T00:13:48.752Z,2.20
2017-09-19T00:14:48.760Z,2.20
2017-09-19T00:15:48.751Z,2.20
2017-09-19T00:16:48.817Z,2.20
2017-09-19T00:17:48.736Z,2.20
2017-09-19T00:18:48.813Z,2.20
2017-09-19T00:19:48.734Z,2.20
2017-09-19T00:20:48.795Z,2.70
2017-09-19T00:21:48.838Z,2.70
2017-09-19T00:22:48.837Z,2.70
2017-09-19T00:23:48.796Z,2.70
2017-09-19T00:24:48.837Z,2.70
2017-09-19T00:25:48.880Z,2.70
2017-09-19T00:26:48.861Z,2.70
2017-09-19T00:27:48.793Z,2.70
2017-09-19T00:28:48.856Z,2.70
2017-09-19T00:29:48.787Z,2.70
2017-09-19T00:30:48.844Z,2.30
2017-09-19T00:31:48.844Z,2.30
2017-09-19T00:32:48.844Z,2.30
2017-09-19T00:33:48.797Z,2.30
2017-09-19T00:34:48.790Z,2.30
2017-09-19T00:35:48.753Z,2.30
2017-09-19T00:36:48.796Z,2.30
2017-09-19T00:37:48.817Z,2.30
2017-09-19T00:38:48.801Z,2.30
2017-09-19T00:39:48.851Z,2.30
2017-09-19T00:40:48.847Z,2.80
2017-09-19T00:41:48.799Z,2.80
2017-09-19T00:42:48.795Z,2.80
2017-09-19T00:43:48.851Z,2.80
2017-09-19T00:44:48.846Z,2.80
2017-09-19T00:45:48.799Z,2.80
2017-09-19T00:46:48.869Z,2.80
2017-09-19T00:47:48.858Z,2.80
2017-09-19T00:48:48.809Z,2.80
2017-09-19T00:49:48.855Z,2.80
2017-09-19T00:50:48.755Z,2.70
2017-09-19T00:51:48.801Z,2.70
2017-09-19T00:52:48.813Z,2.70
2017-09-19T00:53:48.813Z,2.70
2017-09-19T00:54:48.801Z,2.70
2017-09-19T00:55:48.821Z,2.70
2017-09-19T00:56:48.772Z,2.70
2017-09-19T00:57:48.852Z,2.70
2017-09-19T00:58:48.778Z,2.70
2017-09-19T00:59:48.852Z,2.70
2017-09-19T01:00:48.818Z,2.70
2017-09-19T01:01:48.782Z,2.70
2017-09-19T01:02:48.820Z,2.70
2017-09-19T01:03:48.810Z,2.70
2017-09-19T01:04:48.791Z,2.70
2017-09-19T01:05:48.852Z,2.70
2017-09-19T01:06:48.820Z,2.70
2017-09-19T01:07:48.819Z,2.70
2017-09-19T01:08:48.862Z,2.70
2017-09-19T01:09:48.857Z,2.70
2017-09-19T01:10:48.859Z,2.50
2017-09-19T01:11:48.859Z,2.50
2017-09-19T01:12:48.812Z,2.50
2017-09-19T01:13:48.812Z,2.50
2017-09-19T01:14:48.798Z,2.50
2017-09-19T01:15:48.768Z,2.50
2017-09-19T01:16:48.830Z,2.50
2017-09-19T01:17:48.803Z,2.50
2017-09-19T01:18:48.775Z,2.50
2017-09-19T01:19:48.791Z,2.50
2017-09-19T01:20:48.782Z,3.30
2017-09-19T01:21:48.875Z,3.30
2017-09-19T01:22:48.874Z,3.30
2017-09-19T01:23:48.878Z,3.30
2017-09-19T01:24:48.877Z,3.30
2017-09-19T01:25:48.876Z,3.30
2017-09-19T01:26:48.889Z,3.30
2017-09-19T01:27:48.871Z,3.30
2017-09-19T01:28:48.833Z,3.30
2017-09-19T01:29:48.834Z,3.30
2017-09-19T01:30:48.776Z,2.90
2017-09-19T01:31:48.803Z,2.90
2017-09-19T01:33:48.778Z,2.90
2017-09-19T01:34:48.838Z,2.90
2017-09-19T01:35:48.831Z,2.90
2017-09-19T01:36:48.800Z,2.90
2017-09-19T01:37:48.784Z,2.90
2017-09-19T01:38:48.846Z,2.90
2017-09-19T01:39:48.828Z,2.90
2017-09-19T01:40:48.770Z,3.50
2017-09-19T01:41:48.836Z,3.50
2017-09-19T01:42:48.852Z,3.50
2017-09-19T01:43:48.773Z,3.50
2017-09-19T01:44:48.773Z,3.50
2017-09-19T01:45:48.802Z,3.50
2017-09-19T01:46:48.809Z,3.50
2017-09-19T01:47:48.812Z,3.50
2017-09-19T01:48:48.777Z,3.50
2017-09-19T01:49:48.808Z,3.50
2017-09-19T01:50:48.891Z,4.20
2017-09-19T01:51:48.891Z,4.20
2017-09-19T01:52:48.891Z,4.20
2017-09-19T01:53:48.933Z,4.20
2017-09-19T01:54:48.797Z,4.20
2017-09-19T01:55:48.848Z,4.20
2017-09-19T01:56:48.844Z,4.20
2017-09-19T01:57:48.846Z,4.20
2017-09-19T01:58:48.895Z,4.20
2017-09-19T01:59:48.888Z,4.20
2017-09-19T02:00:48.898Z,4.60
2017-09-19T02:01:48.899Z,4.60
2017-09-19T02:02:48.863Z,4.60
2017-09-19T02:03:48.848Z,4.60
2017-09-19T02:04:48.897Z,4.60
2017-09-19T02:05:48.853Z,4.60
2017-09-19T02:06:48.851Z,4.60
2017-09-19T02:07:48.918Z,4.60
2017-09-19T02:08:48.849Z,4.60
2017-09-19T02:09:48.900Z,4.60
2017-09-19T02:10:48.901Z,5.30
2017-09-19T02:11:48.903Z,5.30
2017-09-19T02:12:48.923Z,5.30
2017-09-19T02:13:48.851Z,5.30
2017-09-19T02:14:48.937Z,5.30
2017-09-19T02:15:48.855Z,5.30
2017-09-19T02:16:48.852Z,5.30
2017-09-19T02:17:48.856Z,5.30
2017-09-19T02:18:49.021Z,5.30
2017-09-19T02:19:48.859Z,5.30
2017-09-19T02:20:48.813Z,4.90
2017-09-19T02:21:48.928Z,4.90
2017-09-19T02:22:48.860Z,4.90
2017-09-19T02:23:48.856Z,4.90
2017-09-19T02:24:48.861Z,4.90
2017-09-19T02:25:48.911Z,4.90
2017-09-19T02:26:48.905Z,4.90
2017-09-19T02:27:48.815Z,4.90
2017-09-19T02:28:48.844Z,4.90
2017-09-19T02:29:48.863Z,4.90
2017-09-19T02:30:48.913Z,5.60
2017-09-19T02:31:48.910Z,5.60
2017-09-19T02:32:48.882Z,5.60
2017-09-19T02:33:48.916Z,5.60
2017-09-19T02:34:48.869Z,5.60
2017-09-19T02:35:48.864Z,5.60
2017-09-19T02:36:48.915Z,5.60
2017-09-19T02:37:48.821Z,5.60
2017-09-19T02:38:48.919Z,5.60
2017-09-19T02:39:48.922Z,5.60
2017-09-19T02:40:48.825Z,6.20
2017-09-19T02:41:48.876Z,6.20
2017-09-19T02:42:48.795Z,6.20
2017-09-19T02:43:48.807Z,6.20
2017-09-19T02:44:48.811Z,6.20
2017-09-19T02:45:48.882Z,6.20
2017-09-19T02:46:48.794Z,6.20
2017-09-19T02:47:48.828Z,6.20
2017-09-19T02:48:48.791Z,6.20
2017-09-19T02:49:48.887Z,6.20
2017-09-19T02:50:48.885Z,6.00
2017-09-19T02:51:48.847Z,6.00
2017-09-19T02:52:48.846Z,6.00
2017-09-19T02:53:48.874Z,6.00
2017-09-19T02:54:48.890Z,6.00
2017-09-19T02:55:48.820Z,6.00
2017-09-19T02:56:48.857Z,6.00
2017-09-19T02:57:48.910Z,6.00
2017-09-19T02:58:48.823Z,6.00
2017-09-19T02:59:48.916Z,6.00
2017-09-19T03:00:48.929Z,6.40
2017-09-19T03:01:48.935Z,6.40
2017-09-19T03:02:48.934Z,6.40
2017-09-19T03:03:48.896Z,6.40
2017-09-19T03:04:48.935Z,6.40
2017-09-19T03:05:48.921Z,6.40
2017-09-19T03:06:48.928Z,6.40
2017-09-19T03:07:48.926Z,6.40
2017-09-19T03:08:48.880Z,6.40
2017-09-19T03:09:48.887Z,6.40
2017-09-19T03:10:48.888Z,6.50
2017-09-19T03:11:48.893Z,6.50
2017-09-19T03:12:48.854Z,6.50
2017-09-19T03:13:48.889Z,6.50
2017-09-19T03:14:48.856Z,6.50
2017-09-19T03:15:48.863Z,6.50
2017-09-19T03:16:48.891Z,6.50
2017-09-19T03:17:48.853Z,6.50
2017-09-19T03:18:48.946Z,6.50
2017-09-19T03:19:48.893Z,6.50
2017-09-19T03:20:48.908Z,5.40
2017-09-19T03:21:48.932Z,5.40
2017-09-19T03:22:48.912Z,5.40
2017-09-19T03:23:48.904Z,5.40
2017-09-19T03:24:48.893Z,5.40
2017-09-19T03:25:48.931Z,5.40
2017-09-19T03:26:48.867Z,5.40
2017-09-19T03:27:48.931Z,5.40
2017-09-19T03:28:48.869Z,5.40
2017-09-19T03:29:48.932Z,5.40
2017-09-19T03:30:48.905Z,5.20
2017-09-19T03:31:48.951Z,5.20
2017-09-19T03:32:48.949Z,5.20
2017-09-19T03:33:48.903Z,5.20
2017-09-19T03:34:48.902Z,5.20
2017-09-19T03:35:48.910Z,5.20
2017-09-19T03:36:48.902Z,5.20
2017-09-19T03:37:48.906Z,5.20
2017-09-19T03:38:48.955Z,5.20
2017-09-19T03:39:48.906Z,5.20
2017-09-19T03:40:48.870Z,5.40
2017-09-19T03:41:48.854Z,5.40
2017-09-19T03:42:48.861Z,5.40
2017-09-19T03:43:48.915Z,5.40
2017-09-19T03:44:48.831Z,5.40
2017-09-19T03:45:48.848Z,5.40
2017-09-19T03:46:48.851Z,5.40
2017-09-19T03:47:48.850Z,5.40
2017-09-19T03:48:48.921Z,5.40
2017-09-19T03:49:48.899Z,5.40
2017-09-19T03:50:48.917Z,5.60
2017-09-19T03:51:48.915Z,5.60
2017-09-19T03:52:48.914Z,5.60
2017-09-19T03:53:48.913Z,5.60
2017-09-19T03:55:48.912Z,5.60
2017-09-19T03:56:48.916Z,5.60
2017-09-19T03:57:48.880Z,5.60
2017-09-19T03:58:48.916Z,5.60
2017-09-19T03:59:48.880Z,5.60
2017-09-19T04:00:48.970Z,7.30
2017-09-19T04:01:48.982Z,7.30
2017-09-19T04:02:48.972Z,7.30
2017-09-19T04:03:48.966Z,7.30
2017-09-19T04:04:48.972Z,7.30
2017-09-19T04:05:48.970Z,7.30
2017-09-19T04:06:48.985Z,7.30
2017-09-19T04:07:48.986Z,7.30
2017-09-19T04:08:48.970Z,7.30
2017-09-19T04:09:48.971Z,7.30
2017-09-19T04:10:48.927Z,7.70
2017-09-19T04:11:48.930Z,7.70
2017-09-19T04:12:48.994Z,7.70
2017-09-19T04:13:48.927Z,7.70
2017-09-19T04:14:48.990Z,7.70
2017-09-19T04:15:48.932Z,7.70
2017-09-19T04:16:49.007Z,7.70
2017-09-19T04:17:48.934Z,7.70
2017-09-19T04:18:48.992Z,7.70
2017-09-19T04:19:48.935Z,7.70
2017-09-19T04:20:48.980Z,7.70
2017-09-19T04:21:49.002Z,8.50
2017-09-19T04:22:48.937Z,8.50
2017-09-19T04:23:48.997Z,8.50
2017-09-19T04:24:48.959Z,8.50
2017-09-19T04:25:49.000Z,8.50
2017-09-19T04:26:48.937Z,8.50
2017-09-19T04:27:49.004Z,8.50
2017-09-19T04:28:48.940Z,8.50
2017-09-19T04:29:48.892Z,8.50
2017-09-19T04:30:48.937Z,8.50
2017-09-19T04:31:49.002Z,9.30
2017-09-19T04:32:48.943Z,9.30
2017-09-19T04:33:48.990Z,9.30
2017-09-19T04:34:48.943Z,9.30
2017-09-19T04:35:48.989Z,9.30
2017-09-19T04:36:48.939Z,9.30
2017-09-19T04:37:48.991Z,9.30
2017-09-19T04:38:48.989Z,9.30
2017-09-19T04:39:48.991Z,9.30
2017-09-19T04:40:49.010Z,9.30
2017-09-19T04:41:48.916Z,8.60
2017-09-19T04:42:48.919Z,8.60
2017-09-19T04:43:48.909Z,8.60
2017-09-19T04:44:48.978Z,8.60
2017-09-19T04:45:48.913Z,8.60
2017-09-19T04:46:48.958Z,8.60
2017-09-19T04:47:48.916Z,8.60
2017-09-19T04:48:48.960Z,8.60
2017-09-19T04:49:48.939Z,8.60
2017-09-19T04:50:48.957Z,8.60
2017-09-19T04:51:48.921Z,7.60
2017-09-19T04:52:48.988Z,7.60
2017-09-19T04:53:48.924Z,7.60
2017-09-19T04:54:48.899Z,7.60
2017-09-19T04:55:48.944Z,7.60
2017-09-19T04:56:48.996Z,7.60
2017-09-19T04:57:48.920Z,7.60
2017-09-19T04:58:48.947Z,7.60
2017-09-19T04:59:49.026Z,7.60
2017-09-19T05:00:48.900Z,7.60
2017-09-19T05:01:48.925Z,9.30
2017-09-19T05:02:48.930Z,9.30
2017-09-19T05:03:48.996Z,9.30
2017-09-19T05:04:48.934Z,9.30
2017-09-19T05:05:48.991Z,9.30
2017-09-19T05:06:48.970Z,9.30
2017-09-19T05:07:48.930Z,9.30
2017-09-19T05:08:49.011Z,9.30
2017-09-19T05:09:48.927Z,9.30
2017-09-19T05:10:48.999Z,9.30
2017-09-19T05:11:48.929Z,9.00
2017-09-19T05:12:48.929Z,9.00
2017-09-19T05:13:48.899Z,9.00
2017-09-19T05:14:48.982Z,9.00
2017-09-19T05:15:48.900Z,9.00
2017-09-19T05:16:48.985Z,9.00
2017-09-19T05:17:48.936Z,9.00
2017-09-19T05:18:48.986Z,9.00
2017-09-19T05:19:48.904Z,9.00
2017-09-19T05:20:48.934Z,9.00
2017-09-19T05:21:48.964Z,9.20
2017-09-19T05:22:48.947Z,9.20
2017-09-19T05:23:48.918Z,9.20
2017-09-19T05:24:48.939Z,9.20
2017-09-19T05:25:48.985Z,9.20
2017-09-19T05:26:49.035Z,9.20
2017-09-19T05:27:49.044Z,9.20
2017-09-19T05:28:49.004Z,9.20
2017-09-19T05:29:49.015Z,9.20
2017-09-19T05:30:49.007Z,9.20
2017-09-19T05:31:48.938Z,8.60
2017-09-19T05:32:49.007Z,8.60
2017-09-19T05:33:48.983Z,8.60
2017-09-19T05:34:48.941Z,8.60
2017-09-19T05:35:48.988Z,8.60
2017-09-19T05:36:48.973Z,8.60
2017-09-19T05:37:48.982Z,8.60
2017-09-19T05:38:48.919Z,8.60
2017-09-19T05:39:48.987Z,8.60
2017-09-19T05:40:48.951Z,8.60
2017-09-19T05:41:48.914Z,8.80
2017-09-19T05:42:48.885Z,8.80
2017-09-19T05:43:48.946Z,8.80
2017-09-19T05:44:49.065Z,8.80
2017-09-19T05:45:48.953Z,8.80
2017-09-19T05:46:48.950Z,8.80
2017-09-19T05:47:48.939Z,8.80
2017-09-19T05:48:48.943Z,8.80
2017-09-19T05:49:48.929Z,8.80
2017-09-19T05:50:48.921Z,8.80
2017-09-19T05:51:48.982Z,7.50
2017-09-19T05:52:48.963Z,7.50
2017-09-19T05:53:49.026Z,7.50
2017-09-19T05:54:49.036Z,7.50
2017-09-19T05:55:49.012Z,7.50
2017-09-19T05:56:48.986Z,7.50
2017-09-19T05:57:48.968Z,7.50
2017-09-19T05:58:48.990Z,7.50
2017-09-19T05:59:49.004Z,7.50
2017-09-19T06:00:48.991Z,7.50
2017-09-19T06:01:49.052Z,8.30
2017-09-19T06:02:49.005Z,8.30
2017-09-19T06:03:48.940Z,8.30
2017-09-19T06:04:49.040Z,8.30
2017-09-19T06:05:48.938Z,8.30
2017-09-19T06:06:48.987Z,8.30
2017-09-19T06:07:49.043Z,8.30
2017-09-19T06:08:48.961Z,8.30
2017-09-19T06:09:49.001Z,8.30
2017-09-19T06:10:49.154Z,8.30
2017-09-19T06:11:48.957Z,8.90
2017-09-19T06:12:48.963Z,8.90
2017-09-19T06:13:49.058Z,8.90
2017-09-19T06:14:48.991Z,8.90
2017-09-19T06:15:49.015Z,8.90
2017-09-19T06:16:48.997Z,8.90
2017-09-19T06:17:48.998Z,8.90
2017-09-19T06:18:48.988Z,8.90
2017-09-19T06:19:48.998Z,8.90
2017-09-19T06:20:48.965Z,8.90
2017-09-19T06:21:48.944Z,9.00
2017-09-19T06:22:48.968Z,9.00
2017-09-19T06:23:48.966Z,9.00
2017-09-19T06:24:49.000Z,9.00
2017-09-19T06:25:48.942Z,9.00
2017-09-19T06:26:49.003Z,9.00
2017-09-19T06:27:48.968Z,9.00
2017-09-19T06:28:49.006Z,9.00
2017-09-19T06:29:48.972Z,9.00
2017-09-19T06:30:48.974Z,9.00
2017-09-19T06:31:49.012Z,9.20
2017-09-19T06:32:48.980Z,9.20
2017-09-19T06:33:49.053Z,9.20
2017-09-19T06:34:49.002Z,9.20
2017-09-19T06:35:48.989Z,9.20
2017-09-19T06:36:48.985Z,9.20
2017-09-19T06:37:48.988Z,9.20
2017-09-19T06:38:49.017Z,9.20
2017-09-19T06:39:49.011Z,9.20
2017-09-19T06:40:49.026Z,9.20
2017-09-19T06:41:48.979Z,9.40
2017-09-19T06:42:49.062Z,9.40
2017-09-19T06:43:49.015Z,9.40
2017-09-19T06:44:49.061Z,9.40
2017-09-19T06:45:49.066Z,9.40
2017-09-19T06:46:49.015Z,9.40
2017-09-19T06:47:49.017Z,9.40
2017-09-19T06:48:49.013Z,9.40
2017-09-19T06:49:49.021Z,9.40
2017-09-19T06:50:49.046Z,9.40
2017-09-19T06:51:49.020Z,8.70
2017-09-19T06:52:49.051Z,8.70
2017-09-19T06:53:49.001Z,8.70
2017-09-19T06:54:49.003Z,8.70
2017-09-19T06:55:49.023Z,8.70
2017-09-19T06:56:49.024Z,8.70
2017-09-19T06:57:48.975Z,8.70
2017-09-19T06:58:49.076Z,8.70
2017-09-19T06:59:49.053Z,8.70
2017-09-19T07:00:49.025Z,8.70
2017-09-19T07:01:49.028Z,9.80
2017-09-19T07:02:48.965Z,9.80
2017-09-19T07:03:48.965Z,9.80
2017-09-19T07:04:49.068Z,9.80
2017-09-19T07:05:49.067Z,9.80
2017-09-19T07:06:49.060Z,9.80
2017-09-19T07:07:49.000Z,9.80
2017-09-19T07:08:49.005Z,9.80
2017-09-19T07:09:48.979Z,9.80
2017-09-19T07:10:49.061Z,9.80
2017-09-19T07:11:49.100Z,10.30
2017-09-19T07:12:49.104Z,10.30
2017-09-19T07:13:49.101Z,10.30
2017-09-19T07:14:49.033Z,10.30
2017-09-19T07:15:49.079Z,10.30
2017-09-19T07:16:49.103Z,10.30
2017-09-19T07:17:49.049Z,10.30
2017-09-19T07:18:49.084Z,10.30
2017-09-19T07:19:49.033Z,10.30
2017-09-19T07:20:49.117Z,10.30
2017-09-19T07:21:49.079Z,10.50
2017-09-19T07:22:49.029Z,10.50
2017-09-19T07:23:49.051Z,10.50
2017-09-19T07:24:49.051Z,10.50
2017-09-19T07:25:49.032Z,10.50
2017-09-19T07:26:49.048Z,10.50
2017-09-19T07:27:49.038Z,10.50
2017-09-19T07:28:49.040Z,10.50
2017-09-19T07:29:49.053Z,10.50
2017-09-19T07:30:49.021Z,10.50
2017-09-19T07:31:49.002Z,10.00
2017-09-19T07:32:49.039Z,10.00
2017-09-19T07:33:49.012Z,10.00
2017-09-19T07:34:49.043Z,10.00
2017-09-19T07:35:49.041Z,10.00
2017-09-19T07:36:49.041Z,10.00
2017-09-19T07:37:48.985Z,10.00
2017-09-19T07:38:49.013Z,10.00
2017-09-19T07:39:49.047Z,10.00
2017-09-19T07:40:49.044Z,10.00
2017-09-19T07:41:49.025Z,9.80
2017-09-19T07:42:49.052Z,9.80
2017-09-19T07:43:49.098Z,9.80
2017-09-19T07:44:49.055Z,9.80
2017-09-19T07:45:49.096Z,9.80
2017-09-19T07:46:49.123Z,9.80
2017-09-19T07:47:49.080Z,9.80
2017-09-19T07:48:49.056Z,9.80
2017-09-19T07:49:49.034Z,9.80
2017-09-19T07:50:49.105Z,9.80
2017-09-19T07:51:49.056Z,8.40
2017-09-19T07:52:49.052Z,8.40
2017-09-19T07:53:49.106Z,8.40
2017-09-19T07:54:49.057Z,8.40
2017-09-19T07:55:49.058Z,8.40
2017-09-19T07:56:49.100Z,8.40
2017-09-19T07:57:49.058Z,8.40
2017-09-19T07:58:49.014Z,8.40
2017-09-19T07:59:49.061Z,8.40
2017-09-19T08:00:49.060Z,8.40
2017-09-19T08:01:49.007Z,8.70
2017-09-19T08:02:49.069Z,8.70
2017-09-19T08:03:49.054Z,8.70
2017-09-19T08:04:49.094Z,8.70
2017-09-19T08:05:49.094Z,8.70
2017-09-19T08:06:49.109Z,8.70
2017-09-19T08:07:49.077Z,8.70
2017-09-19T08:08:49.106Z,8.70
2017-09-19T08:09:49.031Z,8.70
2017-09-19T08:10:49.110Z,8.70
2017-09-19T08:11:49.066Z,9.70
2017-09-19T08:12:49.117Z,9.70
2017-09-19T08:13:49.087Z,9.70
2017-09-19T08:14:49.153Z,9.70
2017-09-19T08:15:49.073Z,9.70
2017-09-19T08:16:49.032Z,9.70
2017-09-19T08:17:49.066Z,9.70
2017-09-19T08:18:49.072Z,9.70
2017-09-19T08:19:49.067Z,9.70
2017-09-19T08:20:49.067Z,9.70
2017-09-19T08:21:49.087Z,8.50
2017-09-19T08:22:49.071Z,8.50
2017-09-19T08:23:49.021Z,8.50
2017-09-19T08:24:49.087Z,8.50
2017-09-19T08:25:49.145Z,8.50
2017-09-19T08:26:49.044Z,8.50
2017-09-19T08:27:49.077Z,8.50
2017-09-19T08:28:49.076Z,8.50
2017-09-19T08:29:49.080Z,8.50
2017-09-19T08:30:49.129Z,8.50
2017-09-19T08:31:49.015Z,8.30
2017-09-19T08:32:49.021Z,8.30
2017-09-19T08:33:49.110Z,8.30
2017-09-19T08:34:49.091Z,8.30
2017-09-19T08:35:49.123Z,8.30
2017-09-19T08:36:49.091Z,8.30
2017-09-19T08:37:49.095Z,8.30
2017-09-19T08:38:49.027Z,8.30
2017-09-19T08:39:49.128Z,8.30
2017-09-19T08:40:49.046Z,8.30
2017-09-19T08:41:49.123Z,6.80
2017-09-19T08:42:49.027Z,6.80
2017-09-19T08:43:49.054Z,6.80
2017-09-19T08:44:49.024Z,6.80
2017-09-19T08:45:49.080Z,6.80
2017-09-19T08:46:49.118Z,6.80
2017-09-19T08:47:49.032Z,6.80
2017-09-19T08:48:49.062Z,6.80
2017-09-19T08:49:49.026Z,6.80
2017-09-19T08:50:49.037Z,6.80
2017-09-19T08:51:49.093Z,8.10
2017-09-19T08:52:49.092Z,8.10
2017-09-19T08:53:49.038Z,8.10
2017-09-19T08:54:49.104Z,8.10
2017-09-19T08:55:49.073Z,8.10
2017-09-19T08:56:49.075Z,8.10
2017-09-19T08:57:49.095Z,8.10
2017-09-19T08:58:49.137Z,8.10
2017-09-19T08:59:49.137Z,8.10
2017-09-19T09:00:49.148Z,8.10
2017-09-19T09:01:49.074Z,8.90
2017-09-19T09:02:49.099Z,8.90
2017-09-19T09:03:49.138Z,8.90
2017-09-19T09:04:49.101Z,8.90
2017-09-19T09:05:49.108Z,8.90
2017-09-19T09:06:49.061Z,8.90
2017-09-19T09:07:49.099Z,8.90
2017-09-19T09:08:49.147Z,8.90
2017-09-19T09:09:49.153Z,8.90
2017-09-19T09:10:49.150Z,8.90
2017-09-19T09:11:49.130Z,7.70
2017-09-19T09:12:49.133Z,7.70
2017-09-19T09:13:49.142Z,7.70
2017-09-19T09:14:49.066Z,7.70
2017-09-19T09:15:49.147Z,7.70
2017-09-19T09:16:49.138Z,7.70
2017-09-19T09:17:49.074Z,7.70
2017-09-19T09:18:49.145Z,7.70
2017-09-19T09:19:49.078Z,7.70
2017-09-19T09:20:49.145Z,7.70
2017-09-19T09:21:49.071Z,7.40
2017-09-19T09:22:49.083Z,7.40
2017-09-19T09:23:49.149Z,7.40
2017-09-19T09:24:49.052Z,7.40
2017-09-19T09:25:49.123Z,7.40
2017-09-19T09:26:49.147Z,7.40
2017-09-19T09:27:49.138Z,7.40
2017-09-19T09:28:49.154Z,7.40
2017-09-19T09:29:49.115Z,7.40
2017-09-19T09:30:49.118Z,7.40
2017-09-19T09:31:49.110Z,5.70
2017-09-19T09:32:49.111Z,5.70
2017-09-19T09:33:49.115Z,5.70
2017-09-19T09:34:49.111Z,5.70
2017-09-19T09:35:49.158Z,5.70
2017-09-19T09:36:49.166Z,5.70
2017-09-19T09:37:49.097Z,5.70
2017-09-19T09:38:49.118Z,5.70
2017-09-19T09:39:49.096Z,5.70
2017-09-19T09:40:49.136Z,5.70
2017-09-19T09:41:49.118Z,5.90
2017-09-19T09:42:49.124Z,5.90
2017-09-19T09:43:49.168Z,5.90
2017-09-19T09:44:49.084Z,5.90
2017-09-19T09:45:49.166Z,5.90
2017-09-19T09:46:49.118Z,5.90
2017-09-19T09:47:49.163Z,5.90
2017-09-19T09:48:49.174Z,5.90
2017-09-19T09:49:49.079Z,5.90
2017-09-19T09:50:49.137Z,5.90
2017-09-19T09:51:49.140Z,5.30
2017-09-19T09:52:49.130Z,5.30
2017-09-19T09:53:49.173Z,5.30
2017-09-19T09:54:49.125Z,5.30
2017-09-19T09:55:49.179Z,5.30
2017-09-19T09:56:49.209Z,5.30
2017-09-19T09:57:49.129Z,5.30
2017-09-19T09:58:49.113Z,5.30
2017-09-19T09:59:49.196Z,5.30
2017-09-19T10:00:49.109Z,5.30
2017-09-19T10:01:49.175Z,6.90
2017-09-19T10:02:49.182Z,6.90
2017-09-19T10:03:49.182Z,6.90
2017-09-19T10:04:49.140Z,6.90
2017-09-19T10:05:49.130Z,6.90
2017-09-19T10:06:49.180Z,6.90
2017-09-19T10:07:49.179Z,6.90
2017-09-19T10:08:49.292Z,6.90
2017-09-19T10:09:49.098Z,6.90
2017-09-19T10:10:49.112Z,6.90
2017-09-19T10:11:49.132Z,6.40
2017-09-19T10:12:49.110Z,6.40
2017-09-19T10:13:49.116Z,6.40
2017-09-19T10:14:49.136Z,6.40
2017-09-19T10:15:49.116Z,6.40
2017-09-19T10:16:49.079Z,6.40
2017-09-19T10:17:49.176Z,6.40
2017-09-19T10:18:49.173Z,6.40
2017-09-19T10:19:49.118Z,6.40
2017-09-19T10:20:49.115Z,6.40
2017-09-19T10:21:49.127Z,7.70
2017-09-19T10:22:49.123Z,7.70
2017-09-19T10:23:49.140Z,7.70
2017-09-19T10:24:49.163Z,7.70
2017-09-19T10:25:49.175Z,7.70
2017-09-19T10:26:49.204Z,7.70
2017-09-19T10:27:49.156Z,7.70
2017-09-19T10:28:49.194Z,7.70
2017-09-19T10:29:49.150Z,7.70
2017-09-19T10:30:49.143Z,7.70
2017-09-19T10:31:49.115Z,7.50
2017-09-19T10:32:49.192Z,7.50
2017-09-19T10:33:49.142Z,7.50
2017-09-19T10:34:49.124Z,7.50
2017-09-19T10:35:49.127Z,7.50
2017-09-19T10:36:49.194Z,7.50
2017-09-19T10:37:49.091Z,7.50
2017-09-19T10:38:49.157Z,7.50
2017-09-19T10:39:49.105Z,7.50
2017-09-19T10:40:49.150Z,7.50
2017-09-19T10:41:49.184Z,7.70
2017-09-19T10:42:49.157Z,7.70
2017-09-19T10:43:49.174Z,7.70
2017-09-19T10:44:49.156Z,7.70
2017-09-19T10:45:49.161Z,7.70
2017-09-19T10:46:49.224Z,7.70
2017-09-19T10:47:49.169Z,7.70
2017-09-19T10:48:49.170Z,7.70
2017-09-19T10:49:49.159Z,7.70
2017-09-19T10:50:49.113Z,7.70
2017-09-19T10:51:49.235Z,7.20
2017-09-19T10:52:49.141Z,7.20
2017-09-19T10:53:49.176Z,7.20
2017-09-19T10:54:49.231Z,7.20
2017-09-19T10:55:49.192Z,7.20
2017-09-19T10:56:49.111Z,7.20
2017-09-19T10:57:49.231Z,7.20
2017-09-19T10:58:49.150Z,7.20
2017-09-19T10:59:49.174Z,7.20
2017-09-19T11:00:49.214Z,7.20
2017-09-19T11:01:49.212Z,7.90
2017-09-19T11:02:49.181Z,7.90
2017-09-19T11:03:49.216Z,7.90
2017-09-19T11:04:49.118Z,7.90
2017-09-19T11:05:49.181Z,7.90
2017-09-19T11:06:49.164Z,7.90
2017-09-19T11:07:49.183Z,7.90
2017-09-19T11:08:49.189Z,7.90
2017-09-19T11:09:49.137Z,7.90
2017-09-19T11:10:49.133Z,7.90
2017-09-19T11:11:49.151Z,7.60
2017-09-19T11:12:49.117Z,7.60
2017-09-19T11:13:49.117Z,7.60
2017-09-19T11:14:49.172Z,7.60
2017-09-19T11:15:49.179Z,7.60
2017-09-19T11:16:49.116Z,7.60
2017-09-19T11:17:49.119Z,7.60
2017-09-19T11:18:49.208Z,7.60
2017-09-19T11:19:49.168Z,7.60
2017-09-19T11:20:49.126Z,7.60
2017-09-19T11:21:49.232Z,8.10
2017-09-19T11:22:49.181Z,8.10
2017-09-19T11:23:49.228Z,8.10
2017-09-19T11:24:49.191Z,8.10
2017-09-19T11:25:49.234Z,8.10
2017-09-19T11:26:49.148Z,8.10
2017-09-19T11:27:49.196Z,8.10
2017-09-19T11:28:49.234Z,8.10
2017-09-19T11:29:49.164Z,8.10
2017-09-19T11:30:49.162Z,8.10
2017-09-19T11:31:49.215Z,6.90
2017-09-19T11:32:49.158Z,6.90
2017-09-19T11:33:49.150Z,6.90
2017-09-19T11:34:49.225Z,6.90
2017-09-19T11:35:49.228Z,6.90
2017-09-19T11:36:49.223Z,6.90
2017-09-19T11:37:49.183Z,6.90
2017-09-19T11:38:49.229Z,6.90
2017-09-19T11:39:49.161Z,6.90
2017-09-19T11:40:49.164Z,6.90
2017-09-19T11:41:49.158Z,6.90
2017-09-19T11:42:49.156Z,7.90
2017-09-19T11:43:49.155Z,7.90
2017-09-19T11:44:49.189Z,7.90
2017-09-19T11:45:49.129Z,7.90
2017-09-19T11:46:49.157Z,7.90
2017-09-19T11:47:49.160Z,7.90
2017-09-19T11:48:49.191Z,7.90
2017-09-19T11:49:49.133Z,7.90
2017-09-19T11:50:49.133Z,7.90
2017-09-19T11:51:49.229Z,7.90
2017-09-19T11:52:49.209Z,8.20
2017-09-19T11:53:49.165Z,8.20
2017-09-19T11:54:49.196Z,8.20
2017-09-19T11:55:49.268Z,8.20
2017-09-19T11:56:49.240Z,8.20
2017-09-19T11:57:49.212Z,8.20
2017-09-19T11:58:49.301Z,8.20
2017-09-19T11:59:49.153Z,8.20
2017-09-19T12:00:49.251Z,8.20
2017-09-19T12:01:49.203Z,8.20
2017-09-19T12:02:49.210Z,7.10
2017-09-19T12:03:49.196Z,7.10
2017-09-19T12:04:49.179Z,7.10
2017-09-19T12:05:49.150Z,7.10
2017-09-19T12:06:49.172Z,7.10
2017-09-19T12:07:49.182Z,7.10
2017-09-19T12:08:49.240Z,7.10
2017-09-19T12:09:49.191Z,7.10
2017-09-19T12:10:49.248Z,7.10
2017-09-19T12:11:49.156Z,7.10
2017-09-19T12:12:49.180Z,6.50
2017-09-19T12:13:49.166Z,6.50
2017-09-19T12:14:49.236Z,6.50
2017-09-19T12:15:49.242Z,6.50
2017-09-19T12:16:49.165Z,6.50
2017-09-19T12:17:49.178Z,6.50
2017-09-19T12:18:49.214Z,6.50
2017-09-19T12:19:49.223Z,6.50
2017-09-19T12:20:49.175Z,6.50
2017-09-19T12:21:49.178Z,6.50
2017-09-19T12:22:49.216Z,7.70
2017-09-19T12:23:49.257Z,7.70
2017-09-19T12:24:49.166Z,7.70
2017-09-19T12:25:49.224Z,7.70
2017-09-19T12:26:49.166Z,7.70
2017-09-19T12:27:49.271Z,7.70
2017-09-19T12:28:49.286Z,7.70
2017-09-19T12:29:49.214Z,7.70
2017-09-19T12:30:49.286Z,7.70
2017-09-19T12:31:49.246Z,7.70
2017-09-19T12:32:49.188Z,7.00
2017-09-19T12:33:49.160Z,7.00
2017-09-19T12:34:49.223Z,7.00
2017-09-19T12:35:49.217Z,7.00
2017-09-19T12:36:49.171Z,7.00
2017-09-19T12:37:49.216Z,7.00
2017-09-19T12:38:49.185Z,7.00
2017-09-19T12:39:49.161Z,7.00
2017-09-19T12:40:49.223Z,7.00
2017-09-19T12:41:49.163Z,7.00
2017-09-19T12:42:49.228Z,7.00
2017-09-19T12:43:49.189Z,7.00
2017-09-19T12:44:49.264Z,7.00
2017-09-19T12:45:49.203Z,7.00
2017-09-19T12:46:49.193Z,7.00
2017-09-19T12:47:49.197Z,7.00
2017-09-19T12:48:49.189Z,7.00
2017-09-19T12:49:49.230Z,7.00
2017-09-19T12:50:49.193Z,7.00
2017-09-19T12:51:49.232Z,7.00
2017-09-19T12:52:49.214Z,7.20
2017-09-19T12:53:49.234Z,7.20
2017-09-19T12:54:49.212Z,7.20
2017-09-19T12:55:49.215Z,7.20
2017-09-19T12:56:49.275Z,7.20
2017-09-19T12:57:49.214Z,7.20
2017-09-19T12:58:49.235Z,7.20
2017-09-19T12:59:49.293Z,7.20
2017-09-19T13:00:49.199Z,7.20
2017-09-19T13:01:49.238Z,7.20
2017-09-19T13:02:49.240Z,8.30
2017-09-19T13:03:49.281Z,8.30
2017-09-19T13:04:49.275Z,8.30
2017-09-19T13:05:49.289Z,8.30
2017-09-19T13:06:49.279Z,8.30
2017-09-19T13:07:49.236Z,8.30
2017-09-19T13:08:49.254Z,8.30
2017-09-19T13:09:49.188Z,8.30
2017-09-19T13:10:49.280Z,8.30
2017-09-19T13:11:49.239Z,8.30
2017-09-19T13:12:49.210Z,9.80
2017-09-19T13:13:49.300Z,9.80
2017-09-19T13:14:49.263Z,9.80
2017-09-19T13:15:49.216Z,9.80
2017-09-19T13:16:49.182Z,9.80
2017-09-19T13:17:49.182Z,9.80
2017-09-19T13:18:49.215Z,9.80
2017-09-19T13:19:49.188Z,9.80